sensor_id;sensor_type;location;lat;lon;timestamp;P1;durP1;ratioP1;P2;durP2;ratioP2
19414;SDS011;9843;48.882;12.592;2023-05-07T00:00:49;7.33;;;6.27;;
19414;SDS011;9843;48.882;12.592;2023-05-07T00:03:16;6.67;;;5.97;;
19414;SDS011;9843;48.882;12.592;2023-05-07T00:05:44;6.10;;;5.50;;
19414;SDS011;9843;48.882;12.592;2023-05-07T00:08:11;6.00;;;5.50;;
19414;SDS011;9843;48.882;12.592;2023-05-07T00:10:38;6.50;;;6.00;;
19414;SDS011;9843;48.882;12.592;2023-05-07T00:13:05;7.87;;;5.70;;
19414;SDS011;9843;48.882;12.592;2023-05-07T00:15:34;6.73;;;5.77;;
19414;SDS011;9843;48.882;12.592;2023-05-07T00:18:01;6.37;;;5.77;;
19414;SDS011;9843;48.882;12.592;2023-05-07T00:20:28;7.40;;;6.67;;
19414;SDS011;9843;48.882;12.592;2023-05-07T00:22:55;5.67;;;5.13;;
19414;SDS011;9843;48.882;12.592;2023-05-07T00:25:22;5.20;;;4.90;;
19414;SDS011;9843;48.882;12.592;2023-05-07T00:27:49;8.13;;;4.93;;
19414;SDS011;9843;48.882;12.592;2023-05-07T00:30:16;6.37;;;5.87;;
19414;SDS011;9843;48.882;12.592;2023-05-07T00:32:44;8.60;;;5.37;;
19414;SDS011;9843;48.882;12.592;2023-05-07T00:35:13;6.20;;;5.70;;
19414;SDS011;9843;48.882;12.592;2023-05-07T00:37:40;6.70;;;5.20;;
19414;SDS011;9843;48.882;12.592;2023-05-07T00:40:08;6.10;;;5.50;;
19414;SDS011;9843;48.882;12.592;2023-05-07T00:42:35;8.03;;;5.83;;
19414;SDS011;9843;48.882;12.592;2023-05-07T00:45:02;9.47;;;6.80;;
19414;SDS011;9843;48.882;12.592;2023-05-07T00:47:30;6.97;;;5.57;;
19414;SDS011;9843;48.882;12.592;2023-05-07T00:49:58;6.43;;;5.73;;
19414;SDS011;9843;48.882;12.592;2023-05-07T00:52:25;5.93;;;5.30;;
19414;SDS011;9843;48.882;12.592;2023-05-07T00:54:53;13.90;;;6.70;;
19414;SDS011;9843;48.882;12.592;2023-05-07T00:57:21;6.27;;;5.67;;
19414;SDS011;9843;48.882;12.592;2023-05-07T00:59:48;7.20;;;6.60;;
19414;SDS011;9843;48.882;12.592;2023-05-07T01:02:16;6.27;;;5.67;;
19414;SDS011;9843;48.882;12.592;2023-05-07T01:04:43;6.77;;;6.13;;
19414;SDS011;9843;48.882;12.592;2023-05-07T01:07:11;6.30;;;5.77;;
19414;SDS011;9843;48.882;12.592;2023-05-07T01:09:39;7.03;;;6.20;;
19414;SDS011;9843;48.882;12.592;2023-05-07T01:12:07;5.87;;;5.37;;
19414;SDS011;9843;48.882;12.592;2023-05-07T01:14:34;6.07;;;5.47;;
19414;SDS011;9843;48.882;12.592;2023-05-07T01:17:01;6.47;;;5.87;;
19414;SDS011;9843;48.882;12.592;2023-05-07T01:19:28;6.40;;;5.07;;
19414;SDS011;9843;48.882;12.592;2023-05-07T01:21:57;7.47;;;6.77;;
19414;SDS011;9843;48.882;12.592;2023-05-07T01:24:29;7.10;;;6.40;;
19414;SDS011;9843;48.882;12.592;2023-05-07T01:26:56;12.47;;;8.17;;
19414;SDS011;9843;48.882;12.592;2023-05-07T01:29:23;6.73;;;6.03;;
19414;SDS011;9843;48.882;12.592;2023-05-07T01:31:50;6.50;;;5.53;;
19414;SDS011;9843;48.882;12.592;2023-05-07T01:34:18;7.77;;;5.37;;
19414;SDS011;9843;48.882;12.592;2023-05-07T01:36:46;12.03;;;6.27;;
19414;SDS011;9843;48.882;12.592;2023-05-07T01:39:13;7.33;;;5.63;;
19414;SDS011;9843;48.882;12.592;2023-05-07T01:41:43;6.57;;;6.03;;
19414;SDS011;9843;48.882;12.592;2023-05-07T01:44:11;7.77;;;6.00;;
19414;SDS011;9843;48.882;12.592;2023-05-07T01:46:39;6.17;;;5.67;;
19414;SDS011;9843;48.882;12.592;2023-05-07T01:49:06;7.13;;;6.43;;
19414;SDS011;9843;48.882;12.592;2023-05-07T01:51:33;8.37;;;6.07;;
19414;SDS011;9843;48.882;12.592;2023-05-07T01:54:00;5.77;;;5.20;;
19414;SDS011;9843;48.882;12.592;2023-05-07T01:56:27;6.33;;;5.60;;
19414;SDS011;9843;48.882;12.592;2023-05-07T01:58:56;6.40;;;5.80;;
19414;SDS011;9843;48.882;12.592;2023-05-07T02:01:23;6.43;;;5.93;;
19414;SDS011;9843;48.882;12.592;2023-05-07T02:03:51;9.60;;;5.70;;
19414;SDS011;9843;48.882;12.592;2023-05-07T02:06:18;8.27;;;7.10;;
19414;SDS011;9843;48.882;12.592;2023-05-07T02:08:46;7.50;;;6.23;;
19414;SDS011;9843;48.882;12.592;2023-05-07T02:11:13;8.07;;;5.87;;
19414;SDS011;9843;48.882;12.592;2023-05-07T02:13:40;7.40;;;6.60;;
19414;SDS011;9843;48.882;12.592;2023-05-07T02:16:09;6.50;;;6.00;;
19414;SDS011;9843;48.882;12.592;2023-05-07T02:18:38;6.77;;;6.00;;
19414;SDS011;9843;48.882;12.592;2023-05-07T02:21:05;7.17;;;5.33;;
19414;SDS011;9843;48.882;12.592;2023-05-07T02:23:32;8.40;;;7.03;;
19414;SDS011;9843;48.882;12.592;2023-05-07T02:25:59;7.23;;;6.53;;
19414;SDS011;9843;48.882;12.592;2023-05-07T02:28:26;8.70;;;6.97;;
19414;SDS011;9843;48.882;12.592;2023-05-07T02:30:53;9.90;;;7.13;;
19414;SDS011;9843;48.882;12.592;2023-05-07T02:33:22;7.27;;;6.53;;
19414;SDS011;9843;48.882;12.592;2023-05-07T02:35:49;7.13;;;6.50;;
19414;SDS011;9843;48.882;12.592;2023-05-07T02:38:16;8.27;;;7.57;;
19414;SDS011;9843;48.882;12.592;2023-05-07T02:40:44;7.73;;;6.93;;
19414;SDS011;9843;48.882;12.592;2023-05-07T02:43:11;7.73;;;7.03;;
19414;SDS011;9843;48.882;12.592;2023-05-07T02:45:38;9.47;;;8.23;;
19414;SDS011;9843;48.882;12.592;2023-05-07T02:48:05;21.97;;;11.13;;
19414;SDS011;9843;48.882;12.592;2023-05-07T02:50:34;7.90;;;7.10;;
19414;SDS011;9843;48.882;12.592;2023-05-07T02:53:01;8.93;;;8.13;;
19414;SDS011;9843;48.882;12.592;2023-05-07T02:55:28;8.10;;;7.40;;
19414;SDS011;9843;48.882;12.592;2023-05-07T02:57:55;7.63;;;6.93;;
19414;SDS011;9843;48.882;12.592;2023-05-07T03:00:22;9.53;;;8.60;;
19414;SDS011;9843;48.882;12.592;2023-05-07T03:02:49;9.53;;;7.83;;
19414;SDS011;9843;48.882;12.592;2023-05-07T03:05:16;8.93;;;8.07;;
19414;SDS011;9843;48.882;12.592;2023-05-07T03:07:45;9.13;;;8.17;;
19414;SDS011;9843;48.882;12.592;2023-05-07T03:10:12;10.10;;;9.00;;
19414;SDS011;9843;48.882;12.592;2023-05-07T03:12:40;8.77;;;7.87;;
19414;SDS011;9843;48.882;12.592;2023-05-07T03:15:07;9.00;;;8.10;;
19414;SDS011;9843;48.882;12.592;2023-05-07T03:17:35;8.83;;;8.03;;
19414;SDS011;9843;48.882;12.592;2023-05-07T03:20:02;11.27;;;8.47;;
19414;SDS011;9843;48.882;12.592;2023-05-07T03:22:29;9.77;;;8.77;;
19414;SDS011;9843;48.882;12.592;2023-05-07T03:24:58;10.10;;;8.83;;
19414;SDS011;9843;48.882;12.592;2023-05-07T03:27:25;8.73;;;7.83;;
19414;SDS011;9843;48.882;12.592;2023-05-07T03:29:52;8.97;;;8.23;;
19414;SDS011;9843;48.882;12.592;2023-05-07T03:32:19;9.50;;;7.33;;
19414;SDS011;9843;48.882;12.592;2023-05-07T03:34:46;7.87;;;7.17;;
19414;SDS011;9843;48.882;12.592;2023-05-07T03:37:13;16.97;;;7.17;;
19414;SDS011;9843;48.882;12.592;2023-05-07T03:39:40;8.33;;;7.00;;
19414;SDS011;9843;48.882;12.592;2023-05-07T03:42:08;9.07;;;8.27;;
19414;SDS011;9843;48.882;12.592;2023-05-07T03:44:35;9.13;;;8.23;;
19414;SDS011;9843;48.882;12.592;2023-05-07T03:47:03;7.77;;;7.03;;
19414;SDS011;9843;48.882;12.592;2023-05-07T03:49:30;8.53;;;7.73;;
19414;SDS011;9843;48.882;12.592;2023-05-07T03:51:57;7.20;;;6.50;;
19414;SDS011;9843;48.882;12.592;2023-05-07T03:54:24;7.13;;;6.47;;
19414;SDS011;9843;48.882;12.592;2023-05-07T03:56:51;9.23;;;8.47;;
19414;SDS011;9843;48.882;12.592;2023-05-07T03:59:19;8.40;;;7.67;;
19414;SDS011;9843;48.882;12.592;2023-05-07T04:01:46;8.17;;;7.43;;
19414;SDS011;9843;48.882;12.592;2023-05-07T04:04:14;9.47;;;8.67;;
19414;SDS011;9843;48.882;12.592;2023-05-07T04:06:41;9.83;;;8.83;;
19414;SDS011;9843;48.882;12.592;2023-05-07T04:09:08;13.30;;;10.90;;
19414;SDS011;9843;48.882;12.592;2023-05-07T04:11:35;10.80;;;9.70;;
19414;SDS011;9843;48.882;12.592;2023-05-07T04:14:05;10.27;;;9.13;;
19414;SDS011;9843;48.882;12.592;2023-05-07T04:16:34;10.73;;;9.63;;
19414;SDS011;9843;48.882;12.592;2023-05-07T04:19:01;11.33;;;9.87;;
19414;SDS011;9843;48.882;12.592;2023-05-07T04:21:28;12.43;;;9.07;;
19414;SDS011;9843;48.882;12.592;2023-05-07T04:23:55;13.53;;;10.43;;
19414;SDS011;9843;48.882;12.592;2023-05-07T04:26:22;10.03;;;9.03;;
19414;SDS011;9843;48.882;12.592;2023-05-07T04:28:50;14.60;;;9.93;;
19414;SDS011;9843;48.882;12.592;2023-05-07T04:31:17;16.17;;;10.40;;
19414;SDS011;9843;48.882;12.592;2023-05-07T04:33:45;10.13;;;9.07;;
19414;SDS011;9843;48.882;12.592;2023-05-07T04:36:12;12.87;;;9.17;;
19414;SDS011;9843;48.882;12.592;2023-05-07T04:38:39;10.27;;;8.33;;
19414;SDS011;9843;48.882;12.592;2023-05-07T04:41:06;11.93;;;8.60;;
19414;SDS011;9843;48.882;12.592;2023-05-07T04:43:33;8.80;;;7.90;;
19414;SDS011;9843;48.882;12.592;2023-05-07T04:46:00;9.57;;;8.63;;
19414;SDS011;9843;48.882;12.592;2023-05-07T04:48:27;7.70;;;6.97;;
19414;SDS011;9843;48.882;12.592;2023-05-07T04:50:56;10.80;;;8.10;;
19414;SDS011;9843;48.882;12.592;2023-05-07T04:53:23;11.30;;;7.97;;
19414;SDS011;9843;48.882;12.592;2023-05-07T04:55:54;8.00;;;7.23;;
19414;SDS011;9843;48.882;12.592;2023-05-07T04:58:21;10.90;;;8.00;;
19414;SDS011;9843;48.882;12.592;2023-05-07T05:00:48;9.40;;;8.33;;
19414;SDS011;9843;48.882;12.592;2023-05-07T05:03:15;7.43;;;6.67;;
19414;SDS011;9843;48.882;12.592;2023-05-07T05:05:43;9.30;;;8.40;;
19414;SDS011;9843;48.882;12.592;2023-05-07T05:08:11;9.37;;;7.20;;
19414;SDS011;9843;48.882;12.592;2023-05-07T05:10:38;7.43;;;6.77;;
19414;SDS011;9843;48.882;12.592;2023-05-07T05:13:06;8.40;;;7.60;;
19414;SDS011;9843;48.882;12.592;2023-05-07T05:15:34;9.20;;;8.00;;
19414;SDS011;9843;48.882;12.592;2023-05-07T05:18:01;8.87;;;7.50;;
19414;SDS011;9843;48.882;12.592;2023-05-07T05:20:28;7.80;;;7.10;;
19414;SDS011;9843;48.882;12.592;2023-05-07T05:22:55;12.93;;;6.67;;
19414;SDS011;9843;48.882;12.592;2023-05-07T05:25:23;7.00;;;6.37;;
19414;SDS011;9843;48.882;12.592;2023-05-07T05:27:50;7.57;;;6.80;;
19414;SDS011;9843;48.882;12.592;2023-05-07T05:30:17;8.67;;;7.57;;
19414;SDS011;9843;48.882;12.592;2023-05-07T05:32:44;6.77;;;6.10;;
19414;SDS011;9843;48.882;12.592;2023-05-07T05:35:12;13.07;;;8.37;;
19414;SDS011;9843;48.882;12.592;2023-05-07T05:37:39;10.10;;;7.27;;
19414;SDS011;9843;48.882;12.592;2023-05-07T05:40:06;7.93;;;7.13;;
19414;SDS011;9843;48.882;12.592;2023-05-07T05:42:35;8.47;;;7.63;;
19414;SDS011;9843;48.882;12.592;2023-05-07T05:45:02;9.47;;;8.17;;
19414;SDS011;9843;48.882;12.592;2023-05-07T05:47:29;8.93;;;7.37;;
19414;SDS011;9843;48.882;12.592;2023-05-07T05:49:56;6.93;;;6.43;;
19414;SDS011;9843;48.882;12.592;2023-05-07T05:52:23;6.40;;;5.80;;
19414;SDS011;9843;48.882;12.592;2023-05-07T05:54:50;7.07;;;6.47;;
19414;SDS011;9843;48.882;12.592;2023-05-07T05:57:17;7.27;;;6.53;;
19414;SDS011;9843;48.882;12.592;2023-05-07T05:59:46;8.73;;;6.50;;
19414;SDS011;9843;48.882;12.592;2023-05-07T06:02:13;9.47;;;6.83;;
19414;SDS011;9843;48.882;12.592;2023-05-07T06:04:41;6.53;;;5.90;;
19414;SDS011;9843;48.882;12.592;2023-05-07T06:07:08;6.30;;;5.47;;
19414;SDS011;9843;48.882;12.592;2023-05-07T06:09:35;5.90;;;5.40;;
19414;SDS011;9843;48.882;12.592;2023-05-07T06:12:02;5.63;;;4.60;;
19414;SDS011;9843;48.882;12.592;2023-05-07T06:14:29;5.73;;;5.23;;
19414;SDS011;9843;48.882;12.592;2023-05-07T06:16:57;7.37;;;5.50;;
19414;SDS011;9843;48.882;12.592;2023-05-07T06:19:24;5.03;;;4.50;;
19414;SDS011;9843;48.882;12.592;2023-05-07T06:24:35;5.73;;;5.23;;
19414;SDS011;9843;48.882;12.592;2023-05-07T06:27:02;5.77;;;4.50;;
19414;SDS011;9843;48.882;12.592;2023-05-07T06:29:29;8.10;;;5.67;;
19414;SDS011;9843;48.882;12.592;2023-05-07T06:32:05;5.67;;;5.13;;
19414;SDS011;9843;48.882;12.592;2023-05-07T06:34:32;6.20;;;4.43;;
19414;SDS011;9843;48.882;12.592;2023-05-07T06:36:59;5.63;;;4.47;;
19414;SDS011;9843;48.882;12.592;2023-05-07T06:39:26;5.27;;;4.33;;
19414;SDS011;9843;48.882;12.592;2023-05-07T06:41:53;7.33;;;4.67;;
19414;SDS011;9843;48.882;12.592;2023-05-07T06:44:20;5.20;;;4.20;;
19414;SDS011;9843;48.882;12.592;2023-05-07T06:46:47;5.43;;;4.23;;
19414;SDS011;9843;48.882;12.592;2023-05-07T06:49:16;4.33;;;3.93;;
19414;SDS011;9843;48.882;12.592;2023-05-07T06:51:43;3.97;;;3.67;;
19414;SDS011;9843;48.882;12.592;2023-05-07T06:54:10;5.00;;;4.13;;
19414;SDS011;9843;48.882;12.592;2023-05-07T06:56:37;4.03;;;3.63;;
19414;SDS011;9843;48.882;12.592;2023-05-07T06:59:04;4.10;;;3.70;;
19414;SDS011;9843;48.882;12.592;2023-05-07T07:01:31;7.37;;;4.40;;
19414;SDS011;9843;48.882;12.592;2023-05-07T07:03:58;4.60;;;3.57;;
19414;SDS011;9843;48.882;12.592;2023-05-07T07:06:26;5.10;;;3.50;;
19414;SDS011;9843;48.882;12.592;2023-05-07T07:08:54;6.40;;;4.17;;
19414;SDS011;9843;48.882;12.592;2023-05-07T07:11:21;4.90;;;3.10;;
19414;SDS011;9843;48.882;12.592;2023-05-07T07:13:48;3.70;;;3.40;;
19414;SDS011;9843;48.882;12.592;2023-05-07T07:16:16;4.13;;;3.83;;
19414;SDS011;9843;48.882;12.592;2023-05-07T07:18:43;7.03;;;4.00;;
19414;SDS011;9843;48.882;12.592;2023-05-07T07:21:10;4.77;;;4.13;;
19414;SDS011;9843;48.882;12.592;2023-05-07T07:23:38;4.10;;;3.03;;
19414;SDS011;9843;48.882;12.592;2023-05-07T07:26:05;5.60;;;2.73;;
19414;SDS011;9843;48.882;12.592;2023-05-07T07:28:32;4.83;;;3.60;;
19414;SDS011;9843;48.882;12.592;2023-05-07T07:30:59;5.07;;;3.80;;
19414;SDS011;9843;48.882;12.592;2023-05-07T07:33:26;11.03;;;4.00;;
19414;SDS011;9843;48.882;12.592;2023-05-07T07:35:53;6.40;;;3.07;;
19414;SDS011;9843;48.882;12.592;2023-05-07T07:38:20;2.80;;;2.53;;
19414;SDS011;9843;48.882;12.592;2023-05-07T07:40:48;5.20;;;2.83;;
19414;SDS011;9843;48.882;12.592;2023-05-07T07:43:15;3.35;;;2.63;;
19414;SDS011;9843;48.882;12.592;2023-05-07T07:45:42;4.30;;;3.90;;
19414;SDS011;9843;48.882;12.592;2023-05-07T07:48:11;2.88;;;2.55;;
19414;SDS011;9843;48.882;12.592;2023-05-07T07:50:38;6.15;;;3.30;;
19414;SDS011;9843;48.882;12.592;2023-05-07T07:53:05;9.25;;;3.20;;
19414;SDS011;9843;48.882;12.592;2023-05-07T07:55:32;2.53;;;2.00;;
19414;SDS011;9843;48.882;12.592;2023-05-07T07:58:00;6.65;;;3.38;;
19414;SDS011;9843;48.882;12.592;2023-05-07T08:00:27;5.72;;;2.50;;
19414;SDS011;9843;48.882;12.592;2023-05-07T08:02:54;3.80;;;3.20;;
19414;SDS011;9843;48.882;12.592;2023-05-07T08:05:22;2.60;;;2.10;;
19414;SDS011;9843;48.882;12.592;2023-05-07T08:07:50;2.42;;;1.80;;
19414;SDS011;9843;48.882;12.592;2023-05-07T08:10:18;6.43;;;2.63;;
19414;SDS011;9843;48.882;12.592;2023-05-07T08:12:46;8.60;;;2.70;;
19414;SDS011;9843;48.882;12.592;2023-05-07T08:15:15;5.57;;;3.37;;
19414;SDS011;9843;48.882;12.592;2023-05-07T08:17:42;5.10;;;2.90;;
19414;SDS011;9843;48.882;12.592;2023-05-07T08:20:10;2.53;;;2.33;;
19414;SDS011;9843;48.882;12.592;2023-05-07T08:22:37;2.93;;;2.63;;
19414;SDS011;9843;48.882;12.592;2023-05-07T08:25:05;4.93;;;3.40;;
19414;SDS011;9843;48.882;12.592;2023-05-07T08:27:32;6.83;;;2.80;;
19414;SDS011;9843;48.882;12.592;2023-05-07T08:29:59;4.43;;;3.37;;
19414;SDS011;9843;48.882;12.592;2023-05-07T08:32:27;4.37;;;3.83;;
19414;SDS011;9843;48.882;12.592;2023-05-07T08:34:54;3.43;;;3.13;;
19414;SDS011;9843;48.882;12.592;2023-05-07T08:37:21;3.10;;;2.73;;
19414;SDS011;9843;48.882;12.592;2023-05-07T08:39:48;4.47;;;3.93;;
19414;SDS011;9843;48.882;12.592;2023-05-07T08:42:15;4.33;;;3.67;;
19414;SDS011;9843;48.882;12.592;2023-05-07T08:44:44;5.27;;;3.83;;
19414;SDS011;9843;48.882;12.592;2023-05-07T08:47:12;3.53;;;3.20;;
19414;SDS011;9843;48.882;12.592;2023-05-07T08:49:41;6.23;;;3.63;;
19414;SDS011;9843;48.882;12.592;2023-05-07T08:52:08;4.17;;;3.77;;
19414;SDS011;9843;48.882;12.592;2023-05-07T08:54:36;5.67;;;5.07;;
19414;SDS011;9843;48.882;12.592;2023-05-07T08:57:03;5.73;;;4.57;;
19414;SDS011;9843;48.882;12.592;2023-05-07T08:59:30;5.17;;;4.27;;
19414;SDS011;9843;48.882;12.592;2023-05-07T09:01:57;5.07;;;3.73;;
19414;SDS011;9843;48.882;12.592;2023-05-07T09:04:25;8.13;;;5.30;;
19414;SDS011;9843;48.882;12.592;2023-05-07T09:06:53;4.15;;;3.70;;
19414;SDS011;9843;48.882;12.592;2023-05-07T09:09:21;3.70;;;3.40;;
19414;SDS011;9843;48.882;12.592;2023-05-07T09:11:48;7.72;;;3.45;;
19414;SDS011;9843;48.882;12.592;2023-05-07T09:14:15;4.20;;;3.53;;
19414;SDS011;9843;48.882;12.592;2023-05-07T09:16:42;5.72;;;3.17;;
19414;SDS011;9843;48.882;12.592;2023-05-07T09:19:10;3.58;;;1.98;;
19414;SDS011;9843;48.882;12.592;2023-05-07T09:21:37;3.13;;;2.42;;
19414;SDS011;9843;48.882;12.592;2023-05-07T09:24:06;2.72;;;2.35;;
19414;SDS011;9843;48.882;12.592;2023-05-07T09:26:33;3.97;;;2.38;;
19414;SDS011;9843;48.882;12.592;2023-05-07T09:29:00;4.40;;;2.53;;
19414;SDS011;9843;48.882;12.592;2023-05-07T09:31:27;2.88;;;2.60;;
19414;SDS011;9843;48.882;12.592;2023-05-07T09:33:54;4.15;;;2.08;;
19414;SDS011;9843;48.882;12.592;2023-05-07T09:36:21;3.25;;;2.55;;
19414;SDS011;9843;48.882;12.592;2023-05-07T09:38:49;4.00;;;3.28;;
19414;SDS011;9843;48.882;12.592;2023-05-07T09:41:18;4.55;;;2.45;;
19414;SDS011;9843;48.882;12.592;2023-05-07T09:43:46;4.65;;;3.17;;
19414;SDS011;9843;48.882;12.592;2023-05-07T09:46:14;3.65;;;3.22;;
19414;SDS011;9843;48.882;12.592;2023-05-07T09:48:43;3.80;;;2.85;;
19414;SDS011;9843;48.882;12.592;2023-05-07T09:51:14;3.42;;;3.13;;
19414;SDS011;9843;48.882;12.592;2023-05-07T09:53:43;5.57;;;2.53;;
19414;SDS011;9843;48.882;12.592;2023-05-07T09:56:11;2.90;;;2.53;;
19414;SDS011;9843;48.882;12.592;2023-05-07T09:58:40;5.30;;;3.00;;
19414;SDS011;9843;48.882;12.592;2023-05-07T10:01:08;3.15;;;2.63;;
19414;SDS011;9843;48.882;12.592;2023-05-07T10:03:36;3.08;;;1.67;;
19414;SDS011;9843;48.882;12.592;2023-05-07T10:06:06;3.30;;;2.50;;
19414;SDS011;9843;48.882;12.592;2023-05-07T10:08:33;2.58;;;2.05;;
19414;SDS011;9843;48.882;12.592;2023-05-07T10:11:02;2.72;;;2.50;;
19414;SDS011;9843;48.882;12.592;2023-05-07T10:13:30;4.45;;;1.83;;
19414;SDS011;9843;48.882;12.592;2023-05-07T10:15:59;3.42;;;1.83;;
19414;SDS011;9843;48.882;12.592;2023-05-07T10:18:26;4.45;;;2.10;;
19414;SDS011;9843;48.882;12.592;2023-05-07T10:20:55;2.10;;;1.90;;
19414;SDS011;9843;48.882;12.592;2023-05-07T10:23:25;2.88;;;1.73;;
19414;SDS011;9843;48.882;12.592;2023-05-07T10:25:53;3.60;;;1.83;;
19414;SDS011;9843;48.882;12.592;2023-05-07T10:28:21;5.35;;;2.67;;
19414;SDS011;9843;48.882;12.592;2023-05-07T10:30:53;2.13;;;1.92;;
19414;SDS011;9843;48.882;12.592;2023-05-07T10:33:28;1.98;;;1.55;;
19414;SDS011;9843;48.882;12.592;2023-05-07T10:35:57;2.67;;;1.90;;
19414;SDS011;9843;48.882;12.592;2023-05-07T10:38:24;2.40;;;1.60;;
19414;SDS011;9843;48.882;12.592;2023-05-07T10:40:51;3.58;;;2.25;;
19414;SDS011;9843;48.882;12.592;2023-05-07T10:43:18;1.98;;;1.63;;
19414;SDS011;9843;48.882;12.592;2023-05-07T10:48:29;2.55;;;2.20;;
19414;SDS011;9843;48.882;12.592;2023-05-07T10:51:18;2.45;;;1.55;;
19414;SDS011;9843;48.882;12.592;2023-05-07T10:53:45;3.22;;;2.92;;
19414;SDS011;9843;48.882;12.592;2023-05-07T10:56:25;4.20;;;2.40;;
19414;SDS011;9843;48.882;12.592;2023-05-07T10:58:55;5.07;;;2.72;;
19414;SDS011;9843;48.882;12.592;2023-05-07T11:01:49;5.10;;;2.22;;
19414;SDS011;9843;48.882;12.592;2023-05-07T11:04:18;3.75;;;3.13;;
19414;SDS011;9843;48.882;12.592;2023-05-07T11:12:16;3.95;;;3.22;;
19414;SDS011;9843;48.882;12.592;2023-05-07T11:14:43;4.85;;;3.90;;
19414;SDS011;9843;48.882;12.592;2023-05-07T11:17:11;6.68;;;3.45;;
19414;SDS011;9843;48.882;12.592;2023-05-07T11:19:48;6.25;;;3.90;;
19414;SDS011;9843;48.882;12.592;2023-05-07T11:22:36;3.67;;;3.38;;
19414;SDS011;9843;48.882;12.592;2023-05-07T11:25:05;5.63;;;3.05;;
19414;SDS011;9843;48.882;12.592;2023-05-07T11:27:32;4.30;;;3.20;;
19414;SDS011;9843;48.882;12.592;2023-05-07T11:29:59;4.05;;;3.10;;
19414;SDS011;9843;48.882;12.592;2023-05-07T11:32:27;4.10;;;3.55;;
19414;SDS011;9843;48.882;12.592;2023-05-07T11:34:56;6.93;;;4.68;;
19414;SDS011;9843;48.882;12.592;2023-05-07T11:37:24;5.35;;;2.83;;
19414;SDS011;9843;48.882;12.592;2023-05-07T11:39:52;4.75;;;4.30;;
19414;SDS011;9843;48.882;12.592;2023-05-07T11:42:29;3.92;;;2.60;;
19414;SDS011;9843;48.882;12.592;2023-05-07T11:44:56;3.35;;;2.85;;
19414;SDS011;9843;48.882;12.592;2023-05-07T11:47:24;6.43;;;3.83;;
19414;SDS011;9843;48.882;12.592;2023-05-07T11:49:52;5.25;;;3.65;;
19414;SDS011;9843;48.882;12.592;2023-05-07T11:52:21;7.75;;;3.28;;
19414;SDS011;9843;48.882;12.592;2023-05-07T11:54:48;7.18;;;3.70;;
19414;SDS011;9843;48.882;12.592;2023-05-07T11:57:16;9.70;;;2.55;;
19414;SDS011;9843;48.882;12.592;2023-05-07T11:59:43;4.38;;;4.03;;
19414;SDS011;9843;48.882;12.592;2023-05-07T12:02:10;4.43;;;3.72;;
19414;SDS011;9843;48.882;12.592;2023-05-07T12:04:37;3.85;;;3.40;;
19414;SDS011;9843;48.882;12.592;2023-05-07T12:07:04;3.08;;;2.78;;
19414;SDS011;9843;48.882;12.592;2023-05-07T12:09:33;4.25;;;3.50;;
19414;SDS011;9843;48.882;12.592;2023-05-07T12:12:03;3.75;;;3.05;;
19414;SDS011;9843;48.882;12.592;2023-05-07T12:14:30;3.92;;;2.92;;
19414;SDS011;9843;48.882;12.592;2023-05-07T12:16:57;2.50;;;2.15;;
19414;SDS011;9843;48.882;12.592;2023-05-07T12:19:27;4.25;;;3.08;;
19414;SDS011;9843;48.882;12.592;2023-05-07T12:21:54;8.07;;;3.22;;
19414;SDS011;9843;48.882;12.592;2023-05-07T12:24:21;4.05;;;3.67;;
19414;SDS011;9843;48.882;12.592;2023-05-07T12:26:50;3.20;;;2.88;;
19414;SDS011;9843;48.882;12.592;2023-05-07T12:29:17;8.02;;;3.13;;
19414;SDS011;9843;48.882;12.592;2023-05-07T12:31:47;7.45;;;3.75;;
19414;SDS011;9843;48.882;12.592;2023-05-07T12:34:16;3.42;;;3.13;;
19414;SDS011;9843;48.882;12.592;2023-05-07T12:36:43;4.93;;;3.53;;
19414;SDS011;9843;48.882;12.592;2023-05-07T12:39:10;3.67;;;3.03;;
19414;SDS011;9843;48.882;12.592;2023-05-07T12:44:31;4.20;;;2.08;;
19414;SDS011;9843;48.882;12.592;2023-05-07T12:47:01;8.43;;;2.35;;
19414;SDS011;9843;48.882;12.592;2023-05-07T12:49:28;3.78;;;2.88;;
19414;SDS011;9843;48.882;12.592;2023-05-07T12:51:55;3.28;;;2.85;;
19414;SDS011;9843;48.882;12.592;2023-05-07T12:54:28;5.10;;;2.63;;
19414;SDS011;9843;48.882;12.592;2023-05-07T12:57:02;3.13;;;2.63;;
19414;SDS011;9843;48.882;12.592;2023-05-07T12:59:35;3.55;;;2.38;;
19414;SDS011;9843;48.882;12.592;2023-05-07T13:02:02;3.22;;;1.95;;
19414;SDS011;9843;48.882;12.592;2023-05-07T13:04:29;2.15;;;1.55;;
19414;SDS011;9843;48.882;12.592;2023-05-07T13:06:57;2.17;;;1.95;;
19414;SDS011;9843;48.882;12.592;2023-05-07T13:09:24;3.65;;;1.80;;
19414;SDS011;9843;48.882;12.592;2023-05-07T13:11:51;3.25;;;2.17;;
19414;SDS011;9843;48.882;12.592;2023-05-07T13:14:18;3.50;;;2.63;;
19414;SDS011;9843;48.882;12.592;2023-05-07T13:16:47;7.45;;;2.00;;
19414;SDS011;9843;48.882;12.592;2023-05-07T13:19:14;4.47;;;2.28;;
19414;SDS011;9843;48.882;12.592;2023-05-07T13:21:42;2.92;;;1.88;;
19414;SDS011;9843;48.882;12.592;2023-05-07T13:24:09;7.57;;;2.58;;
19414;SDS011;9843;48.882;12.592;2023-05-07T13:26:36;4.35;;;2.65;;
19414;SDS011;9843;48.882;12.592;2023-05-07T13:29:03;4.20;;;2.08;;
19414;SDS011;9843;48.882;12.592;2023-05-07T13:31:30;5.28;;;2.38;;
19414;SDS011;9843;48.882;12.592;2023-05-07T13:34:00;3.60;;;2.38;;
19414;SDS011;9843;48.882;12.592;2023-05-07T13:36:27;2.30;;;1.55;;
19414;SDS011;9843;48.882;12.592;2023-05-07T13:38:57;6.82;;;2.20;;
19414;SDS011;9843;48.882;12.592;2023-05-07T13:41:25;4.25;;;2.40;;
19414;SDS011;9843;48.882;12.592;2023-05-07T13:43:52;2.85;;;2.35;;
19414;SDS011;9843;48.882;12.592;2023-05-07T13:46:19;6.85;;;3.00;;
19414;SDS011;9843;48.882;12.592;2023-05-07T13:48:47;2.75;;;2.30;;
19414;SDS011;9843;48.882;12.592;2023-05-07T13:51:15;5.20;;;3.53;;
19414;SDS011;9843;48.882;12.592;2023-05-07T13:53:43;3.30;;;2.80;;
19414;SDS011;9843;48.882;12.592;2023-05-07T13:56:10;2.20;;;1.90;;
19414;SDS011;9843;48.882;12.592;2023-05-07T13:58:37;4.05;;;3.38;;
19414;SDS011;9843;48.882;12.592;2023-05-07T14:01:04;4.72;;;2.60;;
19414;SDS011;9843;48.882;12.592;2023-05-07T14:03:31;4.50;;;3.72;;
19414;SDS011;9843;48.882;12.592;2023-05-07T14:05:58;7.32;;;3.08;;
19414;SDS011;9843;48.882;12.592;2023-05-07T14:08:27;3.63;;;3.20;;
19414;SDS011;9843;48.882;12.592;2023-05-07T14:10:54;4.30;;;2.85;;
19414;SDS011;9843;48.882;12.592;2023-05-07T14:13:21;4.68;;;3.60;;
19414;SDS011;9843;48.882;12.592;2023-05-07T14:15:48;5.10;;;3.97;;
19414;SDS011;9843;48.882;12.592;2023-05-07T14:18:16;4.10;;;3.67;;
19414;SDS011;9843;48.882;12.592;2023-05-07T14:20:43;4.10;;;3.03;;
19414;SDS011;9843;48.882;12.592;2023-05-07T14:23:11;4.30;;;3.65;;
19414;SDS011;9843;48.882;12.592;2023-05-07T14:25:40;4.93;;;3.30;;
19414;SDS011;9843;48.882;12.592;2023-05-07T14:28:08;5.43;;;4.07;;
19414;SDS011;9843;48.882;12.592;2023-05-07T14:30:35;5.03;;;4.35;;
19414;SDS011;9843;48.882;12.592;2023-05-07T14:33:02;6.03;;;3.38;;
19414;SDS011;9843;48.882;12.592;2023-05-07T14:35:29;3.70;;;3.17;;
19414;SDS011;9843;48.882;12.592;2023-05-07T14:37:56;4.70;;;3.85;;
19414;SDS011;9843;48.882;12.592;2023-05-07T14:40:23;4.55;;;3.30;;
19414;SDS011;9843;48.882;12.592;2023-05-07T14:42:52;7.95;;;3.67;;
19414;SDS011;9843;48.882;12.592;2023-05-07T14:45:22;4.03;;;3.47;;
19414;SDS011;9843;48.882;12.592;2023-05-07T14:47:49;5.82;;;3.90;;
19414;SDS011;9843;48.882;12.592;2023-05-07T14:50:16;4.20;;;3.13;;
19414;SDS011;9843;48.882;12.592;2023-05-07T14:52:43;4.32;;;3.35;;
19414;SDS011;9843;48.882;12.592;2023-05-07T14:55:11;5.00;;;4.35;;
19414;SDS011;9843;48.882;12.592;2023-05-07T14:57:38;7.13;;;4.20;;
19414;SDS011;9843;48.882;12.592;2023-05-07T15:00:07;5.88;;;3.42;;
19414;SDS011;9843;48.882;12.592;2023-05-07T15:02:36;2.47;;;1.67;;